X  Sluiten METAR luchtvaart weer gegevens      EHAM Amsterdam Airport Schiphol
Temperatuur
4°C Temperatuur
4°C Dauwpunt
100% Vochtigheid



Wind
3 KM/U
2 MPH
1 M/S
2 KTS



130°
ZO
Huidig weer

Helder Helder
Luchtdruk 1024.92 (hPa) - 30.27 (inHg)
Zicht 6.2 (mijl) - 10 (km)
Vliegveld
Vliegveld code EHAM

Locatie : Amsterdam Airport Schiphol
Afstand: 2 (km)

Metar:
EHAM 230555Z 13002KT CAVOK 04/04 Q1025 NOSIG

Tijd: 23-10-2021 07:55 CEST